createdAt,value
2022-10-20T00:01:43.052Z,9.74
2022-10-20T00:04:09.382Z,9.76
2022-10-20T00:06:54.235Z,9.72
2022-10-20T00:09:20.579Z,9.72
2022-10-20T00:11:47.016Z,9.70
2022-10-20T00:14:13.434Z,9.68
2022-10-20T00:16:39.948Z,9.63
2022-10-20T00:19:06.388Z,9.58
2022-10-20T00:21:33.158Z,9.59
2022-10-20T00:24:03.888Z,9.55
2022-10-20T00:26:32.157Z,9.59
2022-10-20T00:28:58.969Z,9.54
2022-10-20T00:31:26.196Z,9.51
2022-10-20T00:33:53.159Z,9.50
2022-10-20T00:36:21.611Z,9.49
2022-10-20T00:38:48.677Z,9.51
2022-10-20T00:41:17.775Z,9.54
2022-10-20T00:43:54.675Z,9.53
2022-10-20T00:46:24.180Z,9.56
2022-10-20T00:48:57.459Z,9.54
2022-10-20T00:51:27.698Z,9.51
2022-10-20T00:54:00.015Z,9.52
2022-10-20T00:56:26.462Z,9.52
2022-10-20T00:58:53.274Z,9.45
2022-10-20T01:01:19.642Z,9.44
2022-10-20T01:03:49.963Z,9.44
2022-10-20T01:06:19.628Z,9.42
2022-10-20T01:08:46.421Z,9.38
2022-10-20T01:11:19.110Z,9.34
2022-10-20T01:14:09.815Z,9.32
2022-10-20T01:16:42.132Z,9.27
2022-10-20T01:19:27.222Z,9.26
2022-10-20T01:22:20.840Z,9.25
2022-10-20T01:25:03.925Z,9.25
2022-10-20T01:27:37.306Z,9.24
2022-10-20T01:30:06.535Z,9.21
2022-10-20T01:32:47.443Z,9.23
2022-10-20T01:35:22.826Z,9.22
2022-10-20T01:38:04.288Z,9.18
2022-10-20T01:40:38.186Z,9.16
2022-10-20T01:43:09.046Z,9.17
2022-10-20T01:45:39.290Z,9.18
2022-10-20T01:48:07.760Z,9.16
2022-10-20T01:50:36.822Z,9.15
2022-10-20T01:53:03.926Z,9.17
2022-10-20T01:55:30.692Z,9.10
2022-10-20T01:58:24.384Z,9.12
2022-10-20T02:00:54.232Z,9.10
2022-10-20T02:03:45.002Z,9.05
2022-10-20T02:06:23.655Z,9.01
2022-10-20T02:08:52.327Z,8.99
2022-10-20T02:11:36.975Z,8.95
2022-10-20T02:14:05.735Z,8.93
2022-10-20T02:16:47.922Z,8.95
2022-10-20T02:19:18.431Z,8.92
2022-10-20T02:21:46.520Z,8.92
2022-10-20T02:24:15.914Z,8.86
2022-10-20T02:26:44.040Z,8.82
2022-10-20T02:29:16.768Z,8.84
2022-10-20T02:31:44.821Z,8.85
2022-10-20T02:34:12.352Z,8.85
2022-10-20T02:36:41.997Z,8.80
2022-10-20T02:39:09.074Z,8.77
2022-10-20T02:41:35.700Z,8.79
2022-10-20T02:44:02.049Z,8.83
2022-10-20T02:46:28.454Z,8.80
2022-10-20T02:48:54.868Z,8.85
2022-10-20T02:51:21.167Z,8.80
2022-10-20T02:53:47.476Z,8.79
2022-10-20T02:56:13.787Z,8.77
2022-10-20T02:58:40.080Z,8.82
2022-10-20T03:01:06.458Z,8.76
2022-10-20T03:03:32.756Z,8.74
2022-10-20T03:06:07.131Z,8.73
2022-10-20T03:08:33.436Z,8.72
2022-10-20T03:10:59.744Z,8.69
2022-10-20T03:13:26.125Z,8.69
2022-10-20T03:15:52.419Z,8.65
2022-10-20T03:18:18.702Z,8.67
2022-10-20T03:20:45.020Z,8.65
2022-10-20T03:23:12.511Z,8.69
2022-10-20T03:25:40.433Z,8.59
2022-10-20T03:28:06.803Z,8.61
2022-10-20T03:30:33.139Z,8.55
2022-10-20T03:32:59.406Z,8.57
2022-10-20T03:35:25.728Z,8.57
2022-10-20T03:37:52.194Z,8.58
2022-10-20T03:40:18.550Z,8.53
2022-10-20T03:42:44.850Z,8.52
2022-10-20T03:45:13.765Z,8.55
2022-10-20T03:47:42.650Z,8.44
2022-10-20T03:50:09.365Z,8.47
2022-10-20T03:52:36.922Z,8.48
2022-10-20T03:55:03.736Z,8.47
2022-10-20T03:57:30.007Z,8.45
2022-10-20T03:59:56.292Z,8.43
2022-10-20T04:02:37.208Z,8.45
2022-10-20T04:05:04.513Z,8.48
2022-10-20T04:07:31.172Z,8.49
2022-10-20T04:09:58.259Z,8.46
2022-10-20T04:12:24.724Z,8.46
2022-10-20T04:14:51.342Z,8.49
2022-10-20T04:17:17.785Z,8.47
2022-10-20T04:19:44.191Z,8.47
2022-10-20T04:22:10.480Z,8.42
2022-10-20T04:24:36.799Z,8.46
2022-10-20T04:27:03.211Z,8.46
2022-10-20T04:29:29.824Z,8.43
2022-10-20T04:31:56.168Z,8.41
2022-10-20T04:34:22.509Z,8.42
2022-10-20T04:36:48.834Z,8.41
2022-10-20T04:39:15.507Z,8.39
2022-10-20T04:41:41.905Z,8.41
2022-10-20T04:44:08.219Z,8.43
2022-10-20T04:46:34.541Z,8.38
2022-10-20T04:49:00.829Z,8.36
2022-10-20T04:51:27.192Z,8.39
2022-10-20T04:53:54.470Z,8.40
2022-10-20T04:56:21.826Z,8.39
2022-10-20T04:58:49.369Z,8.35
2022-10-20T05:01:16.224Z,8.36
2022-10-20T05:03:42.620Z,8.41
2022-10-20T05:06:13.202Z,8.40
2022-10-20T05:08:40.629Z,8.37
2022-10-20T05:11:07.545Z,8.37
2022-10-20T05:13:34.314Z,8.40
2022-10-20T05:16:00.706Z,8.44
2022-10-20T05:18:27.743Z,8.44
2022-10-20T05:21:08.258Z,8.47
2022-10-20T05:23:35.933Z,8.40
2022-10-20T05:26:04.179Z,8.42
2022-10-20T05:28:30.534Z,8.39
2022-10-20T05:31:01.616Z,8.41
2022-10-20T05:33:28.368Z,8.37
2022-10-20T05:35:54.680Z,8.35
2022-10-20T05:38:21.756Z,8.35
2022-10-20T05:40:48.059Z,8.37
2022-10-20T05:43:17.254Z,8.38
2022-10-20T05:45:43.797Z,8.38
2022-10-20T05:53:17.597Z,8.36
2022-10-20T05:55:44.271Z,8.30
2022-10-20T05:58:10.743Z,8.29
2022-10-20T06:00:41.860Z,8.27
2022-10-20T06:03:08.579Z,8.25
2022-10-20T06:05:34.926Z,8.28
2022-10-20T06:08:01.355Z,8.26
2022-10-20T06:10:27.671Z,8.27
2022-10-20T06:12:54.039Z,8.18
2022-10-20T06:15:20.358Z,8.28
2022-10-20T06:17:46.881Z,8.31
2022-10-20T06:20:13.155Z,8.31
2022-10-20T06:22:39.795Z,8.25
2022-10-20T06:25:07.020Z,8.32
2022-10-20T06:27:42.928Z,7.95
2022-10-20T06:30:10.645Z,8.11
2022-10-20T06:32:48.039Z,8.15
2022-10-20T06:35:14.680Z,8.22
2022-10-20T06:37:41.401Z,8.23
2022-10-20T06:40:10.719Z,8.42
2022-10-20T06:45:22.220Z,8.13
2022-10-20T06:47:48.696Z,8.33
2022-10-20T06:50:27.609Z,8.38
2022-10-20T06:53:44.344Z,8.44
2022-10-20T06:56:16.067Z,8.56
2022-10-20T06:59:01.991Z,8.61
2022-10-20T07:01:42.928Z,8.83
2022-10-20T07:09:55.563Z,8.66
2022-10-20T07:15:00.591Z,9.21
2022-10-20T07:17:26.889Z,9.29
2022-10-20T07:19:53.144Z,9.37
2022-10-20T07:22:19.457Z,9.44
2022-10-20T07:24:45.781Z,9.49
2022-10-20T07:27:12.094Z,9.57
2022-10-20T07:29:38.465Z,9.61
2022-10-20T07:32:04.929Z,9.68
2022-10-20T07:34:31.260Z,9.73
2022-10-20T07:36:57.836Z,9.76
2022-10-20T07:39:24.810Z,9.82
2022-10-20T07:41:51.303Z,9.86
2022-10-20T07:44:18.338Z,9.97
2022-10-20T07:46:45.118Z,9.97
2022-10-20T07:51:58.650Z,10.09
2022-10-20T07:54:25.116Z,10.13
2022-10-20T07:56:51.723Z,10.14
2022-10-20T07:59:18.103Z,10.21
2022-10-20T08:01:44.704Z,10.24
2022-10-20T08:04:11.561Z,10.24
2022-10-20T08:06:39.109Z,10.28
2022-10-20T08:09:06.085Z,10.35
2022-10-20T08:11:32.527Z,10.43
2022-10-20T08:13:58.825Z,10.51
2022-10-20T08:16:28.098Z,10.57
2022-10-20T08:21:38.705Z,10.70
2022-10-20T08:24:05.255Z,10.74
2022-10-20T08:26:31.636Z,10.78
2022-10-20T08:28:57.988Z,10.87
2022-10-20T08:31:24.600Z,11.05
2022-10-20T08:33:52.822Z,11.01
2022-10-20T08:36:20.700Z,11.08
2022-10-20T08:38:46.988Z,11.18
2022-10-20T08:41:21.208Z,11.20
2022-10-20T08:43:50.094Z,11.22
2022-10-20T08:48:50.948Z,11.35
2022-10-20T08:51:27.906Z,11.50
2022-10-20T08:53:57.283Z,11.64
2022-10-20T08:56:27.379Z,11.75
2022-10-20T08:58:54.334Z,11.88
2022-10-20T09:01:24.868Z,12.06
2022-10-20T09:03:57.219Z,12.20
2022-10-20T09:06:24.075Z,12.31
2022-10-20T09:08:51.718Z,12.47
2022-10-20T09:11:25.812Z,12.54
2022-10-20T09:13:53.528Z,12.54
2022-10-20T09:16:41.703Z,12.67
2022-10-20T09:19:20.295Z,12.79
2022-10-20T09:21:51.146Z,12.79
2022-10-20T09:24:20.030Z,12.88
2022-10-20T09:27:04.771Z,12.96
2022-10-20T09:29:37.032Z,12.99
2022-10-20T09:32:22.484Z,13.15
2022-10-20T09:34:49.701Z,13.08
2022-10-20T09:37:19.315Z,13.22
2022-10-20T09:39:57.050Z,13.21
2022-10-20T09:42:28.833Z,13.09
2022-10-20T09:45:02.369Z,13.16
2022-10-20T09:47:29.373Z,13.18
2022-10-20T09:50:05.459Z,13.24
2022-10-20T09:52:38.010Z,13.15
2022-10-20T09:55:16.266Z,13.20
2022-10-20T09:57:47.654Z,13.29
2022-10-20T10:00:36.921Z,13.31
2022-10-20T10:03:21.831Z,13.25
2022-10-20T10:05:54.371Z,13.29
2022-10-20T10:08:23.139Z,13.14
2022-10-20T10:11:04.440Z,13.20
2022-10-20T10:13:37.900Z,12.97
2022-10-20T10:16:08.237Z,13.17
2022-10-20T10:18:35.912Z,13.14
2022-10-20T10:21:11.642Z,12.99
2022-10-20T10:24:28.624Z,13.06
2022-10-20T10:26:56.921Z,13.08
2022-10-20T10:29:29.175Z,13.18
2022-10-20T10:32:03.852Z,13.21
2022-10-20T10:34:41.811Z,13.17
2022-10-20T10:37:12.137Z,13.02
2022-10-20T10:39:38.495Z,13.00
2022-10-20T10:42:33.909Z,13.09
2022-10-20T10:45:07.048Z,13.14
2022-10-20T10:47:52.020Z,13.24
2022-10-20T10:50:37.686Z,13.20
2022-10-20T10:53:25.742Z,13.24
2022-10-20T10:56:26.185Z,13.34
2022-10-20T10:59:23.802Z,13.41
2022-10-20T11:02:08.640Z,13.22
2022-10-20T11:05:14.001Z,13.34
2022-10-20T11:08:21.990Z,13.45
2022-10-20T11:11:09.668Z,13.47
2022-10-20T11:13:59.755Z,13.40
2022-10-20T11:16:28.912Z,13.43
2022-10-20T11:19:22.562Z,13.46
2022-10-20T11:22:14.388Z,13.55
2022-10-20T11:24:52.026Z,13.46
2022-10-20T11:27:24.387Z,13.45
2022-10-20T11:30:16.624Z,13.59
2022-10-20T11:33:18.580Z,13.52
2022-10-20T11:35:48.307Z,13.57
2022-10-20T11:38:31.127Z,13.53
2022-10-20T11:41:12.760Z,13.65
2022-10-20T11:44:03.036Z,13.64
2022-10-20T11:47:03.424Z,13.58
2022-10-20T11:49:33.042Z,13.64
2022-10-20T11:52:42.892Z,13.84
2022-10-20T11:55:51.387Z,13.52
2022-10-20T11:58:30.048Z,13.52
2022-10-20T12:01:14.773Z,13.48
2022-10-20T12:03:46.986Z,13.49
2022-10-20T12:06:48.363Z,13.43
2022-10-20T12:12:07.147Z,13.35
2022-10-20T12:14:38.564Z,13.35
2022-10-20T12:17:25.765Z,13.35
2022-10-20T12:19:52.576Z,13.39
2022-10-20T12:22:27.946Z,13.37
2022-10-20T12:24:54.179Z,13.34
2022-10-20T12:27:23.843Z,13.31
2022-10-20T12:29:54.804Z,13.36
2022-10-20T12:32:36.157Z,13.27
2022-10-20T12:35:10.252Z,13.37
2022-10-20T12:37:40.201Z,13.33
2022-10-20T12:40:08.747Z,13.29
2022-10-20T12:42:37.623Z,13.30
2022-10-20T12:45:06.175Z,13.29
2022-10-20T12:47:36.713Z,13.30
2022-10-20T12:50:27.450Z,13.31
2022-10-20T12:52:54.429Z,13.29
2022-10-20T12:58:18.535Z,13.34
2022-10-20T13:00:48.042Z,13.29
2022-10-20T13:03:47.331Z,13.32
2022-10-20T13:06:22.933Z,13.30
2022-10-20T13:09:20.999Z,13.24
2022-10-20T13:12:00.979Z,13.34
2022-10-20T13:14:48.315Z,13.33
2022-10-20T13:17:26.257Z,13.27
2022-10-20T13:20:01.153Z,13.23
2022-10-20T13:22:48.607Z,13.19
2022-10-20T13:25:38.786Z,13.18
2022-10-20T13:28:14.407Z,13.14
2022-10-20T13:31:11.707Z,13.17
2022-10-20T13:34:05.651Z,13.12
2022-10-20T13:36:49.036Z,13.18
2022-10-20T13:39:27.276Z,13.16
2022-10-20T13:42:08.668Z,13.14
2022-10-20T13:45:01.570Z,13.13
2022-10-20T13:47:52.442Z,13.15
2022-10-20T13:50:27.770Z,13.14
2022-10-20T13:52:57.607Z,13.13
2022-10-20T13:55:27.571Z,13.08
2022-10-20T13:57:56.764Z,13.04
2022-10-20T14:00:29.017Z,13.04
2022-10-20T14:02:55.359Z,13.07
2022-10-20T14:05:23.419Z,13.01
2022-10-20T14:07:50.639Z,12.97
2022-10-20T14:10:34.398Z,13.07
2022-10-20T14:13:02.331Z,12.99
2022-10-20T14:15:34.981Z,12.95
2022-10-20T14:18:06.855Z,12.97
2022-10-20T14:20:37.525Z,12.94
2022-10-20T14:23:05.012Z,12.95
2022-10-20T14:25:32.571Z,12.88
2022-10-20T14:28:00.347Z,12.81
2022-10-20T14:30:28.266Z,12.80
2022-10-20T14:32:54.924Z,12.75
2022-10-20T14:35:42.622Z,12.80
2022-10-20T14:38:22.263Z,12.83
2022-10-20T14:40:54.316Z,12.93
2022-10-20T14:43:41.369Z,12.86
2022-10-20T14:46:11.419Z,12.81
2022-10-20T14:48:42.607Z,12.76
2022-10-20T14:51:40.153Z,12.80
2022-10-20T14:54:24.714Z,12.70
2022-10-20T14:56:57.729Z,12.63
2022-10-20T14:59:26.960Z,12.54
2022-10-20T15:02:12.442Z,12.52
2022-10-20T15:04:41.194Z,12.50
2022-10-20T15:07:17.347Z,12.47
2022-10-20T15:09:46.942Z,12.38
2022-10-20T15:12:38.302Z,12.36
2022-10-20T15:15:20.484Z,12.35
2022-10-20T15:17:49.322Z,12.33
2022-10-20T15:20:33.949Z,12.31
2022-10-20T15:23:04.873Z,12.30
2022-10-20T15:25:39.313Z,12.26
2022-10-20T15:28:11.521Z,12.20
2022-10-20T15:30:37.797Z,12.19
2022-10-20T15:33:04.119Z,12.20
2022-10-20T15:35:33.758Z,12.26
2022-10-20T15:38:00.086Z,12.32
2022-10-20T15:40:26.445Z,12.40
2022-10-20T15:42:52.765Z,12.47
2022-10-20T15:45:24.941Z,12.28
2022-10-20T15:47:51.394Z,12.22
2022-10-20T15:50:19.526Z,12.18
2022-10-20T15:52:48.131Z,12.25
2022-10-20T15:55:22.604Z,12.33
2022-10-20T15:57:50.793Z,12.32
2022-10-20T16:00:19.075Z,12.32
2022-10-20T16:02:45.825Z,12.24
2022-10-20T16:05:12.800Z,12.35
2022-10-20T16:07:39.546Z,12.21
2022-10-20T16:10:08.447Z,12.14
2022-10-20T16:12:35.646Z,12.17
2022-10-20T16:15:02.479Z,12.19
2022-10-20T16:17:28.795Z,12.20
2022-10-20T16:19:55.097Z,12.16
2022-10-20T16:22:21.557Z,12.25
2022-10-20T16:24:48.251Z,12.27
2022-10-20T16:27:15.808Z,12.25
2022-10-20T16:29:45.101Z,12.28
2022-10-20T16:32:13.904Z,12.14
2022-10-20T16:34:40.202Z,12.12
2022-10-20T16:37:06.551Z,12.12
2022-10-20T16:39:32.823Z,12.05
2022-10-20T16:41:59.183Z,11.98
2022-10-20T16:44:25.468Z,12.00
2022-10-20T16:46:51.802Z,11.98
2022-10-20T16:49:18.191Z,11.95
2022-10-20T16:51:44.485Z,12.00
2022-10-20T16:54:10.819Z,12.01
2022-10-20T16:56:37.172Z,12.16
2022-10-20T16:59:03.491Z,12.10
2022-10-20T17:01:29.913Z,12.03
2022-10-20T17:03:56.281Z,12.09
2022-10-20T17:06:25.131Z,12.15
2022-10-20T17:08:52.784Z,12.09
2022-10-20T17:11:23.327Z,12.14
2022-10-20T17:13:50.547Z,12.09
2022-10-20T17:16:22.432Z,12.10
2022-10-20T17:18:53.069Z,12.10
2022-10-20T17:21:19.730Z,12.08
2022-10-20T17:23:46.953Z,12.07
2022-10-20T17:26:15.848Z,12.08
2022-10-20T17:28:42.493Z,12.08
2022-10-20T17:31:11.081Z,12.04
2022-10-20T17:33:38.203Z,12.01
2022-10-20T17:36:05.948Z,11.99
2022-10-20T17:38:32.797Z,12.00
2022-10-20T17:41:03.483Z,11.97
2022-10-20T17:43:29.805Z,11.98
2022-10-20T17:46:04.790Z,12.04
2022-10-20T17:48:31.144Z,11.95
2022-10-20T17:51:12.796Z,11.98
2022-10-20T17:53:44.105Z,12.16
2022-10-20T17:56:13.885Z,12.04
2022-10-20T17:58:42.513Z,12.05
2022-10-20T18:01:15.028Z,12.17
2022-10-20T18:03:42.065Z,12.24
2022-10-20T18:06:16.836Z,12.20
2022-10-20T18:08:43.845Z,12.14
2022-10-20T18:11:18.863Z,11.94
2022-10-20T18:13:45.735Z,11.89
2022-10-20T18:16:15.263Z,11.86
2022-10-20T18:18:41.728Z,12.09
2022-10-20T18:21:10.618Z,12.07
2022-10-20T18:23:37.165Z,11.98
2022-10-20T18:26:09.210Z,11.97
2022-10-20T18:28:36.012Z,12.01
2022-10-20T18:31:08.068Z,11.96
2022-10-20T18:33:34.522Z,12.01
2022-10-20T18:36:09.473Z,12.02
2022-10-20T18:38:40.423Z,12.09
2022-10-20T18:41:12.766Z,12.00
2022-10-20T18:43:39.187Z,11.91
2022-10-20T18:46:07.184Z,11.91
2022-10-20T18:48:36.755Z,12.01
2022-10-20T18:51:04.544Z,11.99
2022-10-20T18:53:32.054Z,12.00
2022-10-20T18:56:02.383Z,11.91
2022-10-20T18:58:30.880Z,11.85
2022-10-20T19:01:05.505Z,11.78
2022-10-20T19:03:33.104Z,11.68
2022-10-20T19:06:32.923Z,11.68
2022-10-20T19:09:06.543Z,11.59
2022-10-20T19:11:35.046Z,11.55
2022-10-20T19:14:02.055Z,11.52
2022-10-20T19:16:31.295Z,11.53
2022-10-20T19:18:59.647Z,11.47
2022-10-20T19:21:26.655Z,11.43
2022-10-20T19:23:58.260Z,11.44
2022-10-20T19:26:38.432Z,11.33
2022-10-20T19:29:11.247Z,11.28
2022-10-20T19:31:56.147Z,11.36
2022-10-20T19:34:24.405Z,11.40
2022-10-20T19:36:51.427Z,11.32
2022-10-20T19:39:27.251Z,11.31
2022-10-20T19:41:54.788Z,11.33
2022-10-20T19:44:21.132Z,11.33
2022-10-20T19:46:48.678Z,11.32
2022-10-20T19:49:15.186Z,11.32
2022-10-20T19:51:41.725Z,11.39
2022-10-20T19:54:08.571Z,11.39
2022-10-20T19:56:35.397Z,11.36
2022-10-20T19:59:03.492Z,11.39
2022-10-20T20:01:30.050Z,11.41
2022-10-20T20:03:56.461Z,11.43
2022-10-20T20:06:22.985Z,11.43
2022-10-20T20:08:53.630Z,11.42
2022-10-20T20:11:23.734Z,11.41
2022-10-20T20:13:51.817Z,11.43
2022-10-20T20:16:18.331Z,11.46
2022-10-20T20:18:44.759Z,11.50
2022-10-20T20:21:11.052Z,11.50
2022-10-20T20:23:47.764Z,11.48
2022-10-20T20:26:24.229Z,11.43
2022-10-20T20:28:54.560Z,11.53
2022-10-20T20:31:22.326Z,11.57
2022-10-20T20:33:49.019Z,11.54
2022-10-20T20:36:15.637Z,11.57
2022-10-20T20:38:41.975Z,11.54
2022-10-20T20:41:11.796Z,11.53
2022-10-20T20:43:38.337Z,11.57
2022-10-20T20:46:06.302Z,11.66
2022-10-20T20:48:34.553Z,11.61
2022-10-20T20:51:00.980Z,11.67
2022-10-20T20:53:27.432Z,11.68
2022-10-20T20:56:00.980Z,11.73
2022-10-20T20:58:29.255Z,11.70
2022-10-20T21:01:12.635Z,11.70
2022-10-20T21:03:39.391Z,11.76
2022-10-20T21:06:11.137Z,11.72
2022-10-20T21:08:39.219Z,11.75
2022-10-20T21:11:11.004Z,11.75
2022-10-20T21:13:38.631Z,11.78
2022-10-20T21:16:16.065Z,11.80
2022-10-20T21:18:44.604Z,11.78
2022-10-20T21:21:22.410Z,11.80
2022-10-20T21:23:48.749Z,11.82
2022-10-20T21:26:16.790Z,11.82
2022-10-20T21:28:44.079Z,11.81
2022-10-20T21:31:13.149Z,11.81
2022-10-20T21:33:40.422Z,11.81
2022-10-20T21:36:12.465Z,11.78
2022-10-20T21:38:40.212Z,11.77
2022-10-20T21:41:12.663Z,11.81
2022-10-20T21:43:41.547Z,11.81
2022-10-20T21:46:15.460Z,11.83
2022-10-20T21:48:42.946Z,11.81
2022-10-20T21:51:10.749Z,11.80
2022-10-20T21:53:37.344Z,11.77
2022-10-20T21:56:03.771Z,11.81
2022-10-20T21:58:30.064Z,11.83
2022-10-20T22:00:57.129Z,11.80
2022-10-20T22:03:24.574Z,11.85
2022-10-20T22:05:51.484Z,11.82
2022-10-20T22:08:18.151Z,11.90
2022-10-20T22:10:44.465Z,11.96
2022-10-20T22:13:10.746Z,12.01
2022-10-20T22:15:39.271Z,11.99
2022-10-20T22:18:06.202Z,11.97
2022-10-20T22:20:35.508Z,11.95
2022-10-20T22:23:02.887Z,11.95
2022-10-20T22:25:29.450Z,11.96
2022-10-20T22:27:55.742Z,11.95
2022-10-20T22:30:22.035Z,11.99
2022-10-20T22:32:48.309Z,12.00
2022-10-20T22:35:14.801Z,12.12
2022-10-20T22:37:41.076Z,12.07
2022-10-20T22:40:08.201Z,12.06
2022-10-20T22:42:34.511Z,12.01
2022-10-20T22:45:00.795Z,12.10
2022-10-20T22:47:27.076Z,12.07
2022-10-20T22:49:53.371Z,12.04
2022-10-20T22:52:19.649Z,12.03
2022-10-20T22:54:45.944Z,12.05
2022-10-20T22:57:12.242Z,12.09
2022-10-20T22:59:38.506Z,12.11
2022-10-20T23:02:04.887Z,12.07
2022-10-20T23:04:31.208Z,12.08
2022-10-20T23:06:59.137Z,12.08
2022-10-20T23:09:25.688Z,12.10
2022-10-20T23:11:52.093Z,12.12
2022-10-20T23:14:18.571Z,12.05
2022-10-20T23:16:44.868Z,12.04
2022-10-20T23:19:12.058Z,12.14
2022-10-20T23:21:38.359Z,12.09
2022-10-20T23:24:04.959Z,12.09
2022-10-20T23:26:31.254Z,12.13
2022-10-20T23:28:57.558Z,12.04
2022-10-20T23:31:24.300Z,12.04
2022-10-20T23:33:54.912Z,12.10
2022-10-20T23:36:21.707Z,12.07
2022-10-20T23:38:48.110Z,12.07
2022-10-20T23:41:17.934Z,12.11
2022-10-20T23:43:44.268Z,12.10
2022-10-20T23:46:14.169Z,12.11
2022-10-20T23:48:40.882Z,12.08
2022-10-20T23:51:07.856Z,12.11
2022-10-20T23:53:34.790Z,12.08
2022-10-20T23:56:01.079Z,12.07
2022-10-20T23:58:27.512Z,12.09
